createdAt,value
2022-12-11T00:01:21.378Z,97372.03
2022-12-11T00:06:24.453Z,97367.41
2022-12-11T00:11:27.234Z,97364.50
2022-12-11T00:16:29.698Z,97369.78
2022-12-11T00:21:32.203Z,97368.84
2022-12-11T00:26:34.989Z,97369.38
2022-12-11T00:31:37.576Z,97372.59
2022-12-11T00:36:40.203Z,97359.84
2022-12-11T00:41:42.609Z,97350.66
2022-12-11T00:46:45.130Z,97352.22
2022-12-11T00:51:47.512Z,97352.97
2022-12-11T00:56:50.862Z,97360.66
2022-12-11T01:01:53.236Z,97366.78
2022-12-11T01:06:55.617Z,97372.84
2022-12-11T01:11:58.018Z,97379.63
2022-12-11T01:17:00.543Z,97392.09
2022-12-11T01:22:03.129Z,97396.66
2022-12-11T01:27:05.672Z,97397.44
2022-12-11T01:32:08.184Z,97392.84
2022-12-11T01:37:10.647Z,97392.75
2022-12-11T01:42:19.020Z,97399.78
2022-12-11T01:47:21.461Z,97390.50
2022-12-11T01:52:24.046Z,97403.28
2022-12-11T01:57:26.458Z,97403.56
2022-12-11T02:02:31.549Z,97402.41
2022-12-11T02:07:44.879Z,97398.91
2022-12-11T02:12:57.848Z,97407.78
2022-12-11T02:18:06.290Z,97409.31
2022-12-11T02:23:23.254Z,97405.03
2022-12-11T02:28:37.691Z,97399.69
2022-12-11T02:33:58.356Z,97395.75
2022-12-11T02:39:03.647Z,97392.06
2022-12-11T02:44:06.910Z,97397.41
2022-12-11T02:49:12.138Z,97399.69
2022-12-11T02:54:25.131Z,97404.91
2022-12-11T02:59:37.064Z,97399.56
2022-12-11T03:04:40.611Z,97402.78
2022-12-11T03:09:45.123Z,97399.13
2022-12-11T03:14:48.986Z,97402.44
2022-12-11T03:20:02.086Z,97399.16
2022-12-11T03:25:20.199Z,97389.00
2022-12-11T03:30:24.351Z,97409.63
2022-12-11T03:35:40.017Z,97404.91
2022-12-11T03:40:46.210Z,97399.66
2022-12-11T03:45:50.746Z,97401.78
2022-12-11T03:50:53.650Z,97406.63
2022-12-11T03:55:59.169Z,97394.34
2022-12-11T04:01:01.599Z,97397.03
2022-12-11T04:06:04.351Z,97393.50
2022-12-11T04:11:25.635Z,97388.16
2022-12-11T04:16:28.038Z,97394.72
2022-12-11T04:21:49.049Z,97387.44
2022-12-11T04:26:51.617Z,97372.13
2022-12-11T04:31:54.301Z,97363.66
2022-12-11T04:36:56.742Z,97361.03
2022-12-11T04:41:59.144Z,97363.97
2022-12-11T04:47:01.583Z,97363.06
2022-12-11T04:52:04.564Z,97356.00
2022-12-11T04:57:07.347Z,97353.84
2022-12-11T05:02:09.763Z,97337.97
2022-12-11T05:07:12.197Z,97342.41
2022-12-11T05:12:14.836Z,97348.91
2022-12-11T05:17:17.465Z,97347.47
2022-12-11T05:22:19.961Z,97352.13
2022-12-11T05:27:22.354Z,97344.53
2022-12-11T05:32:24.900Z,97331.81
2022-12-11T05:37:27.528Z,97331.34
2022-12-11T05:42:29.894Z,97326.06
2022-12-11T05:47:32.485Z,97333.84
2022-12-11T05:52:35.368Z,97332.22
2022-12-11T05:57:38.023Z,97339.97
2022-12-11T06:02:40.553Z,97338.00
2022-12-11T06:07:43.326Z,97354.47
2022-12-11T06:12:45.847Z,97355.25
2022-12-11T06:17:51.243Z,97345.31
2022-12-11T06:22:53.775Z,97354.13
2022-12-11T06:27:56.664Z,97343.34
2022-12-11T06:32:59.666Z,97333.59
2022-12-11T06:38:02.101Z,97332.13
2022-12-11T06:43:05.024Z,97332.53
2022-12-11T06:48:07.792Z,97333.03
2022-12-11T06:53:12.487Z,97327.63
2022-12-11T06:58:15.215Z,97338.84
2022-12-11T07:03:17.793Z,97353.63
2022-12-11T07:08:20.267Z,97356.44
2022-12-11T07:13:22.717Z,97355.22
2022-12-11T07:18:25.115Z,97343.00
2022-12-11T07:23:28.820Z,97354.28
2022-12-11T07:28:31.247Z,97351.34
2022-12-11T07:33:34.119Z,97343.78
2022-12-11T07:38:37.667Z,97355.28
2022-12-11T07:43:40.712Z,97361.41
2022-12-11T07:48:44.922Z,97368.31
2022-12-11T07:53:51.130Z,97356.78
2022-12-11T07:58:53.900Z,97358.38
2022-12-11T08:03:56.914Z,97355.53
2022-12-11T08:09:01.403Z,97351.84
2022-12-11T08:14:06.034Z,97352.56
2022-12-11T08:19:08.754Z,97345.22
2022-12-11T08:24:11.905Z,97347.50
2022-12-11T08:29:15.064Z,97353.47
2022-12-11T08:34:17.501Z,97358.78
2022-12-11T08:39:19.870Z,97354.28
2022-12-11T08:44:25.069Z,97360.44
2022-12-11T08:49:32.738Z,97360.41
2022-12-11T08:54:38.318Z,97361.41
2022-12-11T08:59:40.966Z,97353.28
2022-12-11T09:04:43.451Z,97357.75
2022-12-11T09:09:45.891Z,97342.09
2022-12-11T09:14:48.286Z,97348.91
2022-12-11T09:19:50.711Z,97352.03
2022-12-11T09:24:53.213Z,97341.28
2022-12-11T09:29:55.655Z,97349.78
2022-12-11T09:34:58.032Z,97341.50
2022-12-11T09:40:05.771Z,97344.53
2022-12-11T09:45:15.352Z,97342.91
2022-12-11T09:50:23.014Z,97338.31
2022-12-11T09:55:29.854Z,97331.56
2022-12-11T10:00:45.663Z,97336.78
2022-12-11T10:06:15.179Z,97328.25
2022-12-11T10:11:36.535Z,97322.84
2022-12-11T10:16:51.076Z,97328.84
2022-12-11T10:21:54.809Z,97315.13
2022-12-11T10:27:02.169Z,97305.19
2022-12-11T10:32:11.906Z,97305.41
2022-12-11T10:37:15.684Z,97297.00
2022-12-11T10:42:22.024Z,97292.38
2022-12-11T10:47:24.501Z,97281.72
2022-12-11T10:52:31.690Z,97283.28
2022-12-11T10:57:39.272Z,97276.75
2022-12-11T11:02:45.330Z,97272.94
2022-12-11T11:07:47.952Z,97271.63
2022-12-11T11:12:59.834Z,97266.91
2022-12-11T11:18:12.774Z,97263.09
2022-12-11T11:23:18.649Z,97255.59
2022-12-11T11:28:37.900Z,97254.59
2022-12-11T11:33:59.011Z,97245.91
2022-12-11T11:39:12.364Z,97250.22
2022-12-11T11:44:37.066Z,97250.50
2022-12-11T11:50:06.376Z,97241.78
2022-12-11T11:55:20.265Z,97233.78
2022-12-11T12:00:33.306Z,97243.44
2022-12-11T12:05:50.422Z,97230.97
2022-12-11T12:11:20.243Z,97230.59
2022-12-11T12:17:06.761Z,97235.94
2022-12-11T12:22:18.033Z,97232.34
2022-12-11T12:33:31.343Z,97231.41
2022-12-11T12:38:42.679Z,97220.56
2022-12-11T12:43:54.130Z,97207.50
2022-12-11T12:48:58.915Z,97205.41
2022-12-11T12:54:09.138Z,97208.00
2022-12-11T12:59:26.507Z,97205.16
2022-12-11T13:04:59.428Z,97209.44
2022-12-11T13:10:23.134Z,97209.56
2022-12-11T13:15:39.089Z,97213.38
2022-12-11T13:20:51.122Z,97207.81
2022-12-11T13:25:59.598Z,97203.16
2022-12-11T13:31:08.354Z,97212.84
2022-12-11T13:36:16.683Z,97211.84
2022-12-11T13:41:20.871Z,97221.59
2022-12-11T13:46:29.356Z,97218.19
2022-12-11T13:51:35.374Z,97219.09
2022-12-11T13:56:38.217Z,97212.91
2022-12-11T14:01:40.777Z,97219.56
2022-12-11T14:06:43.631Z,97227.72
2022-12-11T14:11:52.152Z,97231.56
2022-12-11T14:16:57.749Z,97235.06
2022-12-11T14:22:07.230Z,97230.00
2022-12-11T14:27:18.763Z,97240.84
2022-12-11T14:32:36.991Z,97238.34
2022-12-11T14:37:40.373Z,97245.16
2022-12-11T14:43:00.280Z,97252.38
2022-12-11T14:48:16.443Z,97258.09
2022-12-11T14:53:24.457Z,97258.06
2022-12-11T14:58:27.897Z,97262.16
2022-12-11T15:03:36.781Z,97265.19
2022-12-11T15:08:39.558Z,97264.88
2022-12-11T15:14:00.325Z,97266.16
2022-12-11T15:19:02.965Z,97266.25
2022-12-11T15:24:07.228Z,97273.91
2022-12-11T15:29:36.059Z,97272.00
2022-12-11T15:34:50.100Z,97267.13
2022-12-11T15:39:54.521Z,97266.28
2022-12-11T15:44:57.557Z,97280.97
2022-12-11T15:50:19.532Z,97288.50
2022-12-11T15:55:24.116Z,97286.00
2022-12-11T16:00:29.818Z,97284.31
2022-12-11T16:05:32.253Z,97286.94
2022-12-11T16:10:35.003Z,97295.53
2022-12-11T16:15:42.847Z,97295.59
2022-12-11T16:20:46.687Z,97294.13
2022-12-11T16:25:49.864Z,97287.66
2022-12-11T16:30:52.377Z,97288.16
2022-12-11T16:35:54.805Z,97295.13
2022-12-11T16:41:01.299Z,97289.94
2022-12-11T16:46:03.948Z,97286.38
2022-12-11T16:51:06.913Z,97292.16
2022-12-11T16:56:09.886Z,97288.31
2022-12-11T17:01:13.351Z,97287.50
2022-12-11T17:06:17.824Z,97289.19
2022-12-11T17:11:22.249Z,97285.75
2022-12-11T17:16:29.005Z,97284.63
2022-12-11T17:21:31.485Z,97288.44
2022-12-11T17:26:35.227Z,97277.25
2022-12-11T17:31:38.337Z,97276.28
2022-12-11T17:36:40.853Z,97281.69
2022-12-11T17:41:43.519Z,97277.91
2022-12-11T17:46:46.223Z,97285.88
2022-12-11T17:51:48.840Z,97273.53
2022-12-11T17:56:51.430Z,97273.28
2022-12-11T18:01:54.257Z,97275.44
2022-12-11T18:06:56.819Z,97278.06
2022-12-11T18:11:59.279Z,97277.50
2022-12-11T18:17:01.998Z,97276.78
2022-12-11T18:22:04.864Z,97278.28
2022-12-11T18:27:10.993Z,97269.88
2022-12-11T18:32:13.427Z,97272.69
2022-12-11T18:37:15.972Z,97270.84
2022-12-11T18:42:34.054Z,97268.66
2022-12-11T18:47:37.606Z,97269.81
2022-12-11T18:52:40.203Z,97271.03
2022-12-11T18:57:42.751Z,97277.31
2022-12-11T19:02:45.355Z,97276.03
2022-12-11T19:07:48.082Z,97283.91
2022-12-11T19:12:50.536Z,97273.44
2022-12-11T19:17:52.939Z,97280.88
2022-12-11T19:22:55.351Z,97277.16
2022-12-11T19:27:58.086Z,97277.91
2022-12-11T19:33:00.527Z,97276.38
2022-12-11T19:38:03.202Z,97270.22
2022-12-11T19:43:06.028Z,97272.16
2022-12-11T19:48:08.832Z,97267.16
2022-12-11T19:53:11.273Z,97267.22
2022-12-11T19:58:13.778Z,97273.19
2022-12-11T20:03:16.223Z,97270.97
2022-12-11T20:08:43.684Z,97286.84
2022-12-11T20:13:41.338Z,97283.88
2022-12-11T20:18:44.331Z,97288.59
2022-12-11T20:23:47.595Z,97293.84
2022-12-11T20:28:51.685Z,97294.59
2022-12-11T20:33:55.813Z,97297.06
2022-12-11T20:38:58.563Z,97299.88
2022-12-11T20:44:01.390Z,97294.28
2022-12-11T20:49:04.040Z,97294.06
2022-12-11T20:54:07.131Z,97303.88
2022-12-11T20:59:10.665Z,97300.22
2022-12-11T21:04:13.181Z,97294.94
2022-12-11T21:09:19.606Z,97306.25
2022-12-11T21:14:22.693Z,97306.16
2022-12-11T21:19:26.021Z,97304.34
2022-12-11T21:24:29.773Z,97295.53
2022-12-11T21:29:32.506Z,97298.59
2022-12-11T21:34:35.363Z,97298.97
2022-12-11T21:39:39.585Z,97300.13
2022-12-11T21:45:44.340Z,97300.09
2022-12-11T21:50:05.162Z,97311.91
2022-12-11T21:55:08.583Z,97308.13
2022-12-11T22:00:11.855Z,97314.63
2022-12-11T22:05:17.702Z,97323.84
2022-12-11T22:10:20.154Z,97319.66
2022-12-11T22:15:22.683Z,97329.16
2022-12-11T22:20:25.173Z,97325.78
2022-12-11T22:25:28.983Z,97323.50
2022-12-11T22:30:32.041Z,97326.13
2022-12-11T22:35:34.852Z,97320.81
2022-12-11T22:40:41.388Z,97319.22
2022-12-11T22:45:43.864Z,97325.78
2022-12-11T22:50:46.313Z,97322.31
2022-12-11T22:55:48.960Z,97316.59
2022-12-11T23:00:51.371Z,97325.31
2022-12-11T23:05:53.998Z,97325.16
2022-12-11T23:10:57.073Z,97331.97
2022-12-11T23:15:59.438Z,97332.31
2022-12-11T23:21:02.517Z,97334.50
2022-12-11T23:26:06.752Z,97336.75
2022-12-11T23:31:10.190Z,97332.28
2022-12-11T23:36:13.431Z,97326.06
2022-12-11T23:41:16.061Z,97331.69
2022-12-11T23:46:22.963Z,97336.72
2022-12-11T23:51:26.862Z,97324.47
2022-12-11T23:56:30.260Z,97326.91
